Terminal Aerodrome Forecast
Issued by NWS

Home | Current Version | Previous Version | Text Only | Print | Product List | Glossary Off
Versions: 1 2 3 4 5 6 7 8 9 10 11 12 13 14 15 16 17 18 19 20 21 22 23 24 25 26 27 28

329
FTUS45 KGGW 211909 AAA
TAFGDV
TAF AMD
KGDV 211909Z 2119/2218 32015G23KT P6SM VCTS BKN080CB
     FM220400 31008KT P6SM BKN080
     FM221100 31011KT P6SM VCSH SCT028 BKN035=

USA.gov is the U.S. government's official web portal to all federal, state and local government web resources and services.